createdAt,value
2023-02-11T00:00:30.798Z,51.33
2023-02-11T00:02:57.478Z,50.84
2023-02-11T00:05:24.071Z,50.39
2023-02-11T00:07:50.688Z,50.40
2023-02-11T00:10:17.382Z,52.29
2023-02-11T00:12:43.977Z,52.30
2023-02-11T00:15:11.053Z,51.93
2023-02-11T00:17:37.665Z,51.28
2023-02-11T00:20:07.221Z,51.51
2023-02-11T00:22:34.702Z,50.78
2023-02-11T00:25:01.482Z,50.52
2023-02-11T00:27:28.093Z,50.43
2023-02-11T00:29:54.833Z,49.42
2023-02-11T00:32:21.787Z,50.14
2023-02-11T00:34:52.423Z,50.39
2023-02-11T00:37:19.036Z,52.01
2023-02-11T00:39:45.770Z,51.54
2023-02-11T00:42:14.973Z,52.21
2023-02-11T00:44:41.735Z,51.69
2023-02-11T00:47:08.356Z,51.29
2023-02-11T00:49:35.150Z,51.55
2023-02-11T00:52:01.775Z,51.58
2023-02-11T00:54:29.992Z,52.53
2023-02-11T00:56:56.692Z,51.49
2023-02-11T00:59:23.291Z,52.71
2023-02-11T01:01:49.933Z,53.47
2023-02-11T01:04:16.582Z,55.64
2023-02-11T01:06:43.186Z,56.02
2023-02-11T01:09:09.856Z,55.51
2023-02-11T01:11:36.492Z,57.37
2023-02-11T01:14:03.215Z,56.77
2023-02-11T01:16:29.951Z,57.67
2023-02-11T01:18:56.692Z,55.65
2023-02-11T01:21:23.341Z,53.55
2023-02-11T01:23:49.941Z,53.74
2023-02-11T01:26:16.890Z,53.58
2023-02-11T01:28:43.623Z,53.49
2023-02-11T01:31:10.401Z,53.08
2023-02-11T01:33:37.081Z,53.88
2023-02-11T01:36:05.508Z,53.39
2023-02-11T01:38:33.110Z,52.33
2023-02-11T01:41:06.948Z,52.77
2023-02-11T01:43:41.422Z,52.86
2023-02-11T01:46:29.901Z,52.64
2023-02-11T01:49:11.158Z,53.19
2023-02-11T01:51:45.987Z,52.93
2023-02-11T01:54:35.278Z,53.75
2023-02-11T01:57:22.417Z,52.49
2023-02-11T02:00:07.374Z,52.23
2023-02-11T02:03:12.586Z,52.68
2023-02-11T02:05:46.671Z,51.81
2023-02-11T02:08:36.221Z,52.08
2023-02-11T02:11:03.714Z,52.09
2023-02-11T02:13:33.969Z,51.54
2023-02-11T02:16:09.686Z,52.01
2023-02-11T02:18:51.604Z,52.33
2023-02-11T02:21:46.169Z,52.27
2023-02-11T02:24:35.766Z,54.43
2023-02-11T02:27:14.179Z,52.85
2023-02-11T02:30:18.305Z,52.32
2023-02-11T02:32:51.000Z,53.61
2023-02-11T02:35:23.698Z,54.47
2023-02-11T02:38:16.233Z,55.11
2023-02-11T02:41:01.565Z,55.10
2023-02-11T02:43:30.265Z,54.89
2023-02-11T02:46:18.847Z,54.13
2023-02-11T02:48:46.288Z,56.83
2023-02-11T02:51:50.472Z,56.89
2023-02-11T02:54:38.958Z,54.53
2023-02-11T02:57:59.381Z,53.59
2023-02-11T03:00:34.813Z,53.93
2023-02-11T03:03:18.099Z,55.12
2023-02-11T03:06:05.149Z,54.40
2023-02-11T03:08:47.013Z,55.21
2023-02-11T03:11:17.687Z,54.48
2023-02-11T03:13:46.146Z,54.41
2023-02-11T03:16:20.046Z,54.14
2023-02-11T03:18:52.841Z,54.06
2023-02-11T03:21:20.745Z,53.21
2023-02-11T03:23:54.054Z,53.62
2023-02-11T03:26:33.017Z,53.50
2023-02-11T03:29:14.669Z,53.54
2023-02-11T03:31:54.929Z,53.06
2023-02-11T03:34:27.021Z,52.80
2023-02-11T03:37:04.394Z,53.69
2023-02-11T03:39:37.099Z,53.72
2023-02-11T03:42:05.952Z,52.73
2023-02-11T03:44:38.780Z,54.08
2023-02-11T03:47:09.414Z,53.56
2023-02-11T03:49:38.540Z,54.06
2023-02-11T03:52:07.872Z,53.12
2023-02-11T03:54:35.263Z,53.67
2023-02-11T03:57:02.744Z,53.04
2023-02-11T03:59:29.814Z,53.49
2023-02-11T04:01:57.745Z,53.10
2023-02-11T04:04:24.412Z,52.79
2023-02-11T04:06:51.016Z,53.89
2023-02-11T04:09:17.668Z,53.07
2023-02-11T04:11:44.248Z,53.51
2023-02-11T04:14:10.870Z,53.56
2023-02-11T04:16:37.587Z,54.90
2023-02-11T04:19:04.273Z,58.06
2023-02-11T04:21:30.864Z,57.94
2023-02-11T04:23:57.447Z,59.50
2023-02-11T04:26:24.046Z,58.84
2023-02-11T04:28:50.644Z,56.44
2023-02-11T04:31:17.327Z,55.84
2023-02-11T04:33:43.988Z,55.65
2023-02-11T04:36:10.573Z,54.67
2023-02-11T04:38:37.183Z,53.98
2023-02-11T04:41:03.887Z,56.39
2023-02-11T04:43:30.476Z,55.41
2023-02-11T04:45:58.931Z,54.33
2023-02-11T04:48:26.665Z,53.73
2023-02-11T04:50:53.292Z,54.04
2023-02-11T04:53:20.140Z,54.58
2023-02-11T04:55:50.559Z,55.13
2023-02-11T04:58:18.970Z,56.22
2023-02-11T05:00:46.253Z,55.54
2023-02-11T05:03:13.196Z,55.42
2023-02-11T05:05:40.784Z,55.17
2023-02-11T05:08:08.562Z,54.98
2023-02-11T05:10:35.321Z,54.86
2023-02-11T05:13:01.924Z,54.46
2023-02-11T05:15:29.513Z,54.04
2023-02-11T05:17:56.437Z,56.64
2023-02-11T05:20:23.010Z,56.48
2023-02-11T05:22:49.628Z,57.98
2023-02-11T05:25:16.239Z,56.84
2023-02-11T05:27:42.838Z,55.90
2023-02-11T05:30:10.754Z,55.49
2023-02-11T05:32:37.406Z,55.36
2023-02-11T05:35:04.202Z,55.67
2023-02-11T05:37:30.906Z,55.19
2023-02-11T05:39:57.522Z,56.07
2023-02-11T05:42:24.138Z,55.40
2023-02-11T05:44:50.845Z,57.82
2023-02-11T05:47:17.510Z,62.83
2023-02-11T05:49:44.088Z,60.56
2023-02-11T05:52:10.652Z,58.70
2023-02-11T05:54:37.262Z,58.62
2023-02-11T05:57:03.898Z,57.25
2023-02-11T05:59:30.638Z,57.07
2023-02-11T06:01:57.279Z,56.77
2023-02-11T06:04:23.904Z,56.01
2023-02-11T06:06:50.568Z,56.57
2023-02-11T06:09:17.195Z,55.83
2023-02-11T06:11:43.793Z,55.28
2023-02-11T06:14:11.056Z,54.86
2023-02-11T06:16:38.298Z,54.67
2023-02-11T06:19:04.871Z,55.09
2023-02-11T06:21:42.883Z,54.93
2023-02-11T06:24:10.385Z,57.95
2023-02-11T06:26:37.094Z,57.61
2023-02-11T06:29:03.752Z,57.30
2023-02-11T06:31:30.651Z,56.65
2023-02-11T06:33:58.532Z,56.10
2023-02-11T06:36:25.602Z,55.83
2023-02-11T06:38:52.453Z,55.39
2023-02-11T06:41:23.049Z,55.68
2023-02-11T06:43:49.913Z,55.53
2023-02-11T06:46:16.672Z,56.22
2023-02-11T06:48:44.987Z,55.97
2023-02-11T06:51:13.441Z,57.10
2023-02-11T06:53:45.512Z,56.38
2023-02-11T06:56:16.736Z,59.59
2023-02-11T06:58:43.497Z,61.85
2023-02-11T07:01:13.744Z,59.46
2023-02-11T07:03:43.177Z,58.01
2023-02-11T07:06:14.383Z,57.36
2023-02-11T07:08:42.572Z,57.37
2023-02-11T07:11:11.436Z,61.59
2023-02-11T07:13:38.070Z,59.81
2023-02-11T07:16:09.585Z,59.24
2023-02-11T07:18:36.252Z,58.50
2023-02-11T07:21:07.809Z,58.37
2023-02-11T07:23:35.610Z,57.91
2023-02-11T07:26:11.353Z,58.02
2023-02-11T07:28:39.097Z,57.15
2023-02-11T07:31:07.985Z,57.26
2023-02-11T07:33:35.454Z,57.48
2023-02-11T07:36:02.163Z,56.65
2023-02-11T07:38:28.792Z,57.39
2023-02-11T07:40:55.404Z,56.52
2023-02-11T07:43:21.975Z,57.22
2023-02-11T07:45:48.717Z,58.40
2023-02-11T07:48:15.462Z,57.69
2023-02-11T07:50:42.059Z,57.75
2023-02-11T07:53:08.646Z,57.36
2023-02-11T07:55:35.613Z,56.91
2023-02-11T07:58:02.181Z,56.61
2023-02-11T08:00:28.841Z,56.91
2023-02-11T08:02:57.490Z,56.10
2023-02-11T08:05:24.148Z,56.21
2023-02-11T08:07:55.129Z,56.70
2023-02-11T08:10:22.080Z,56.69
2023-02-11T08:12:48.757Z,58.41
2023-02-11T08:15:15.328Z,59.61
2023-02-11T08:17:41.934Z,56.88
2023-02-11T08:20:08.825Z,57.34
2023-02-11T08:22:35.471Z,56.94
2023-02-11T08:25:02.090Z,56.28
2023-02-11T08:27:29.105Z,56.48
2023-02-11T08:29:56.426Z,56.15
2023-02-11T08:32:25.584Z,56.44
2023-02-11T08:34:53.332Z,57.92
2023-02-11T08:37:20.458Z,57.08
2023-02-11T08:39:47.501Z,58.64
2023-02-11T08:42:15.665Z,57.80
2023-02-11T08:44:43.112Z,57.59
2023-02-11T08:47:09.793Z,59.27
2023-02-11T08:49:36.523Z,57.73
2023-02-11T08:52:03.989Z,57.19
2023-02-11T08:54:31.825Z,57.51
2023-02-11T08:56:58.584Z,57.10
2023-02-11T08:59:25.229Z,56.84
2023-02-11T09:01:51.936Z,55.97
2023-02-11T09:04:18.652Z,55.05
2023-02-11T09:06:45.999Z,54.92
2023-02-11T09:09:15.277Z,56.20
2023-02-11T09:11:43.900Z,57.06
2023-02-11T09:14:18.496Z,58.04
2023-02-11T09:16:45.156Z,57.73
2023-02-11T09:19:11.776Z,56.87
2023-02-11T09:21:38.536Z,55.89
2023-02-11T09:24:06.635Z,55.40
2023-02-11T09:26:35.674Z,55.24
2023-02-11T09:29:04.720Z,54.42
2023-02-11T09:31:33.040Z,54.32
2023-02-11T09:34:04.421Z,52.01
2023-02-11T09:36:34.424Z,51.83
2023-02-11T09:39:02.459Z,53.40
2023-02-11T09:41:40.925Z,52.89
2023-02-11T09:44:16.645Z,52.52
2023-02-11T09:46:47.753Z,52.57
2023-02-11T09:49:22.006Z,52.74
2023-02-11T09:51:54.895Z,52.30
2023-02-11T09:54:31.632Z,52.68
2023-02-11T09:56:58.322Z,53.55
2023-02-11T09:59:24.964Z,53.24
2023-02-11T10:02:02.425Z,52.96
2023-02-11T10:04:47.348Z,55.76
2023-02-11T10:07:21.180Z,56.01
2023-02-11T10:10:17.584Z,53.05
2023-02-11T10:13:08.014Z,51.69
2023-02-11T10:15:34.600Z,50.93
2023-02-11T10:18:35.742Z,51.35
2023-02-11T10:21:22.576Z,51.19
2023-02-11T10:23:53.872Z,50.15
2023-02-11T10:26:20.589Z,51.00
2023-02-11T10:28:50.334Z,49.56
2023-02-11T10:31:28.854Z,49.82
2023-02-11T10:34:12.921Z,51.14
2023-02-11T10:36:45.034Z,49.84
2023-02-11T10:39:18.295Z,50.69
2023-02-11T10:41:59.372Z,50.69
2023-02-11T10:44:31.308Z,49.91
2023-02-11T10:47:02.155Z,50.27
2023-02-11T10:49:42.277Z,49.58
2023-02-11T10:52:18.200Z,49.67
2023-02-11T10:54:59.466Z,49.76
2023-02-11T10:57:35.603Z,49.74
2023-02-11T11:00:21.169Z,49.55
2023-02-11T11:02:58.553Z,49.50
2023-02-11T11:05:45.591Z,49.34
2023-02-11T11:08:13.223Z,49.02
2023-02-11T11:10:45.990Z,48.39
2023-02-11T11:13:24.921Z,47.53
2023-02-11T11:16:10.285Z,46.70
2023-02-11T11:18:36.910Z,44.20
2023-02-11T11:21:12.849Z,45.47
2023-02-11T11:23:40.647Z,44.89
2023-02-11T11:26:15.815Z,44.67
2023-02-11T11:29:08.129Z,44.25
2023-02-11T11:31:46.427Z,45.22
2023-02-11T11:34:21.827Z,43.54
2023-02-11T11:36:49.998Z,45.33
2023-02-11T11:39:25.518Z,45.76
2023-02-11T11:41:55.394Z,44.86
2023-02-11T11:44:31.796Z,45.64
2023-02-11T11:47:13.601Z,45.63
2023-02-11T11:50:14.855Z,45.79
2023-02-11T11:53:01.668Z,45.66
2023-02-11T11:55:39.772Z,46.64
2023-02-11T11:58:13.571Z,45.70
2023-02-11T12:00:47.705Z,46.05
2023-02-11T12:03:32.849Z,46.17
2023-02-11T12:05:59.478Z,46.51
2023-02-11T12:08:38.148Z,46.07
2023-02-11T12:11:07.510Z,46.43
2023-02-11T12:13:56.676Z,45.56
2023-02-11T12:17:00.191Z,45.44
2023-02-11T12:19:45.504Z,45.40
2023-02-11T12:22:26.869Z,44.66
2023-02-11T12:25:08.648Z,42.96
2023-02-11T12:27:50.374Z,45.43
2023-02-11T12:30:50.006Z,44.25
2023-02-11T12:33:35.403Z,42.14
2023-02-11T12:36:35.435Z,43.41
2023-02-11T12:39:20.705Z,42.94
2023-02-11T12:42:38.042Z,43.57
2023-02-11T12:45:26.044Z,42.79
2023-02-11T12:48:15.571Z,42.41
2023-02-11T12:50:52.471Z,41.12
2023-02-11T12:53:40.048Z,41.45
2023-02-11T12:56:40.726Z,41.87
2023-02-11T12:59:17.388Z,42.03
2023-02-11T13:01:45.113Z,40.61
2023-02-11T13:04:35.354Z,38.88
2023-02-11T13:07:15.904Z,39.06
2023-02-11T13:09:51.045Z,39.14
2023-02-11T13:12:37.133Z,42.38
2023-02-11T13:15:07.990Z,43.57
2023-02-11T13:17:59.418Z,43.50
2023-02-11T13:20:38.406Z,43.16
2023-02-11T13:23:34.760Z,43.96
2023-02-11T13:26:15.503Z,44.18
2023-02-11T13:28:57.950Z,44.75
2023-02-11T13:31:27.544Z,44.46
2023-02-11T13:33:54.326Z,43.82
2023-02-11T13:36:26.679Z,43.40
2023-02-11T13:38:59.994Z,43.00
2023-02-11T13:41:38.092Z,44.19
2023-02-11T13:44:10.441Z,44.07
2023-02-11T13:46:58.254Z,43.76
2023-02-11T13:49:31.151Z,43.32
2023-02-11T13:51:58.945Z,42.37
2023-02-11T13:54:31.110Z,42.35
2023-02-11T13:57:26.947Z,40.66
2023-02-11T14:00:24.505Z,41.51
2023-02-11T14:03:29.277Z,43.37
2023-02-11T14:06:29.351Z,43.29
2023-02-11T14:09:35.147Z,44.10
2023-02-11T14:12:24.714Z,44.13
2023-02-11T14:15:07.974Z,42.21
2023-02-11T14:17:35.106Z,41.83
2023-02-11T14:20:04.741Z,41.95
2023-02-11T14:22:44.485Z,41.78
2023-02-11T14:25:22.774Z,40.78
2023-02-11T14:27:56.727Z,39.79
2023-02-11T14:30:46.164Z,45.00
2023-02-11T14:33:31.337Z,46.12
2023-02-11T14:36:16.322Z,45.16
2023-02-11T14:38:52.866Z,46.71
2023-02-11T14:41:34.201Z,46.25
2023-02-11T14:44:15.545Z,44.67
2023-02-11T14:46:47.870Z,44.55
2023-02-11T14:49:39.470Z,45.66
2023-02-11T14:52:24.611Z,43.79
2023-02-11T14:54:53.499Z,43.39
2023-02-11T14:57:20.886Z,43.72
2023-02-11T15:00:02.306Z,43.57
2023-02-11T15:02:33.567Z,43.04
2023-02-11T15:05:16.515Z,42.51
2023-02-11T15:07:52.988Z,42.54
2023-02-11T15:10:43.697Z,42.60
2023-02-11T15:13:19.769Z,42.22
2023-02-11T15:15:48.902Z,41.77
2023-02-11T15:18:22.742Z,42.75
2023-02-11T15:20:50.919Z,42.23
2023-02-11T15:23:27.364Z,42.43
2023-02-11T15:25:56.349Z,41.44
2023-02-11T15:28:31.679Z,42.72
2023-02-11T15:31:06.673Z,42.99
2023-02-11T15:33:33.506Z,42.60
2023-02-11T15:36:01.900Z,42.13
2023-02-11T15:38:30.242Z,42.06
2023-02-11T15:41:02.297Z,42.85
2023-02-11T15:43:42.863Z,42.58
2023-02-11T15:46:11.958Z,41.76
2023-02-11T15:48:51.892Z,42.38
2023-02-11T15:51:32.899Z,42.56
2023-02-11T15:54:02.620Z,42.51
2023-02-11T15:56:44.221Z,42.70
2023-02-11T15:59:25.877Z,42.12
2023-02-11T16:01:54.698Z,42.74
2023-02-11T16:04:24.197Z,41.74
2023-02-11T16:06:52.020Z,40.14
2023-02-11T16:09:34.063Z,39.72
2023-02-11T16:12:04.611Z,40.07
2023-02-11T16:14:34.348Z,40.66
2023-02-11T16:17:12.161Z,41.17
2023-02-11T16:19:48.595Z,41.59
2023-02-11T16:22:22.792Z,41.07
2023-02-11T16:24:52.761Z,40.59
2023-02-11T16:27:23.856Z,40.91
2023-02-11T16:29:51.364Z,40.78
2023-02-11T16:32:25.170Z,40.45
2023-02-11T16:34:53.568Z,40.78
2023-02-11T16:37:20.168Z,40.90
2023-02-11T16:39:46.942Z,40.77
2023-02-11T16:42:13.662Z,41.64
2023-02-11T16:44:40.328Z,41.14
2023-02-11T16:47:17.255Z,41.12
2023-02-11T16:49:43.991Z,41.28
2023-02-11T16:52:14.846Z,41.15
2023-02-11T16:54:41.712Z,40.26
2023-02-11T16:57:23.097Z,40.88
2023-02-11T16:59:50.344Z,40.56
2023-02-11T17:02:24.088Z,40.23
2023-02-11T17:04:53.464Z,40.19
2023-02-11T17:07:20.200Z,40.49
2023-02-11T17:09:46.790Z,41.43
2023-02-11T17:12:13.400Z,42.05
2023-02-11T17:14:40.020Z,42.57
2023-02-11T17:17:06.777Z,42.14
2023-02-11T17:19:33.371Z,42.03
2023-02-11T17:21:59.942Z,40.48
2023-02-11T17:24:26.556Z,40.93
2023-02-11T17:26:53.345Z,40.97
2023-02-11T17:29:23.113Z,41.07
2023-02-11T17:31:52.013Z,39.97
2023-02-11T17:34:20.531Z,39.61
2023-02-11T17:36:47.517Z,41.96
2023-02-11T17:39:14.265Z,42.57
2023-02-11T17:41:41.037Z,41.36
2023-02-11T17:44:08.478Z,40.50
2023-02-11T17:46:35.596Z,40.22
2023-02-11T17:49:03.449Z,40.75
2023-02-11T17:51:32.972Z,40.77
2023-02-11T17:54:02.406Z,41.04
2023-02-11T17:56:31.327Z,40.46
2023-02-11T17:58:57.990Z,41.43
2023-02-11T18:01:27.475Z,42.09
2023-02-11T18:03:54.103Z,40.79
2023-02-11T18:06:21.689Z,41.20
2023-02-11T18:08:48.549Z,41.04
2023-02-11T18:11:16.480Z,40.74
2023-02-11T18:13:45.253Z,40.34
2023-02-11T18:16:15.914Z,40.58
2023-02-11T18:18:43.443Z,40.82
2023-02-11T18:21:17.762Z,41.29
2023-02-11T18:23:44.647Z,41.53
2023-02-11T18:26:13.029Z,41.80
2023-02-11T18:28:41.165Z,41.49
2023-02-11T18:31:10.651Z,41.57
2023-02-11T18:33:41.272Z,41.36
2023-02-11T18:36:10.065Z,41.11
2023-02-11T18:38:36.781Z,41.23
2023-02-11T18:41:04.364Z,41.71
2023-02-11T18:43:33.671Z,41.82
2023-02-11T18:46:02.152Z,41.84
2023-02-11T18:48:28.860Z,41.14
2023-02-11T18:50:55.835Z,41.67
2023-02-11T18:53:23.289Z,41.45
2023-02-11T18:55:50.092Z,41.50
2023-02-11T18:58:17.183Z,41.90
2023-02-11T19:00:49.191Z,41.25
2023-02-11T19:03:16.881Z,41.19
2023-02-11T19:05:47.949Z,41.86
2023-02-11T19:08:15.267Z,42.50
2023-02-11T19:10:43.850Z,42.32
2023-02-11T19:13:10.708Z,42.51
2023-02-11T19:15:46.692Z,42.85
2023-02-11T19:18:14.741Z,42.70
2023-02-11T19:20:43.476Z,42.16
2023-02-11T19:23:10.930Z,42.81
2023-02-11T19:25:38.232Z,42.72
2023-02-11T19:28:05.036Z,42.25
2023-02-11T19:30:31.692Z,41.84
2023-02-11T19:32:58.415Z,41.75
2023-02-11T19:35:25.556Z,41.23
2023-02-11T19:37:52.260Z,41.04
2023-02-11T19:40:21.254Z,41.45
2023-02-11T19:42:48.234Z,41.39
2023-02-11T19:45:14.948Z,41.07
2023-02-11T19:47:41.537Z,41.20
2023-02-11T19:50:09.434Z,41.62
2023-02-11T19:52:40.550Z,41.25
2023-02-11T19:55:07.773Z,41.33
2023-02-11T19:57:34.365Z,41.66
2023-02-11T20:00:01.467Z,41.56
2023-02-11T20:02:29.255Z,41.27
2023-02-11T20:04:55.878Z,41.02
2023-02-11T20:07:22.575Z,41.04
2023-02-11T20:09:49.173Z,41.06
2023-02-11T20:12:15.750Z,41.46
2023-02-11T20:14:42.340Z,41.71
2023-02-11T20:17:08.929Z,41.72
2023-02-11T20:19:35.540Z,41.47
2023-02-11T20:22:02.148Z,41.19
2023-02-11T20:24:28.713Z,41.33
2023-02-11T20:26:56.125Z,41.05
2023-02-11T20:29:23.811Z,41.35
2023-02-11T20:31:50.956Z,43.19
2023-02-11T20:34:18.763Z,43.25
2023-02-11T20:36:51.976Z,42.21
2023-02-11T20:39:21.741Z,41.82
2023-02-11T20:41:48.724Z,41.83
2023-02-11T20:44:15.359Z,42.50
2023-02-11T20:46:46.528Z,42.35
2023-02-11T20:49:16.731Z,41.85
2023-02-11T20:51:43.475Z,41.86
2023-02-11T20:54:18.792Z,42.35
2023-02-11T20:56:48.106Z,42.12
2023-02-11T20:59:16.703Z,42.19
2023-02-11T21:01:46.233Z,42.08
2023-02-11T21:04:16.790Z,42.25
2023-02-11T21:06:47.310Z,42.16
2023-02-11T21:09:17.429Z,42.36
2023-02-11T21:11:44.003Z,42.17
2023-02-11T21:14:12.020Z,42.04
2023-02-11T21:16:39.861Z,42.34
2023-02-11T21:19:06.976Z,42.46
2023-02-11T21:21:36.050Z,42.62
2023-02-11T21:24:02.730Z,42.15
2023-02-11T21:26:29.364Z,42.26
2023-02-11T21:28:55.991Z,41.88
2023-02-11T21:31:26.150Z,42.11
2023-02-11T21:33:55.089Z,42.41
2023-02-11T21:36:23.524Z,42.57
2023-02-11T21:38:50.266Z,42.79
2023-02-11T21:41:18.515Z,42.52
2023-02-11T21:43:45.732Z,42.03
2023-02-11T21:46:14.593Z,42.41
2023-02-11T21:48:41.617Z,42.42
2023-02-11T21:51:12.824Z,42.61
2023-02-11T21:53:39.496Z,42.61
2023-02-11T21:56:08.776Z,42.42
2023-02-11T21:58:36.535Z,42.25
2023-02-11T22:01:14.622Z,41.98
2023-02-11T22:03:41.846Z,42.29
2023-02-11T22:06:11.422Z,42.20
2023-02-11T22:08:39.661Z,42.39
2023-02-11T22:11:09.093Z,42.34
2023-02-11T22:13:36.636Z,42.42
2023-02-11T22:16:07.409Z,42.53
2023-02-11T22:18:34.120Z,42.74
2023-02-11T22:21:02.651Z,43.45
2023-02-11T22:23:30.053Z,43.99
2023-02-11T22:25:57.679Z,44.10
2023-02-11T22:28:25.981Z,45.77
2023-02-11T22:30:56.985Z,47.02
2023-02-11T22:33:28.612Z,45.89
2023-02-11T22:36:03.575Z,45.21
2023-02-11T22:38:32.368Z,45.70
2023-02-11T22:41:00.625Z,45.89
2023-02-11T22:43:27.978Z,45.34
2023-02-11T22:45:56.574Z,44.68
2023-02-11T22:48:23.446Z,44.98
2023-02-11T22:50:50.041Z,45.96
2023-02-11T22:53:16.680Z,47.09
2023-02-11T22:55:43.573Z,49.24
2023-02-11T22:58:10.465Z,50.82
2023-02-11T23:00:41.548Z,52.82
2023-02-11T23:03:10.214Z,51.93
2023-02-11T23:05:41.458Z,52.06
2023-02-11T23:08:10.205Z,50.64
2023-02-11T23:10:38.618Z,49.83
2023-02-11T23:13:06.646Z,49.59
2023-02-11T23:15:34.034Z,49.33
2023-02-11T23:18:00.656Z,49.79
2023-02-11T23:20:27.269Z,50.34
2023-02-11T23:22:53.904Z,51.48
2023-02-11T23:25:20.487Z,50.56
2023-02-11T23:27:47.133Z,50.19
2023-02-11T23:30:14.192Z,50.17
2023-02-11T23:32:40.920Z,49.48
2023-02-11T23:35:07.844Z,49.29
2023-02-11T23:37:34.521Z,48.58
2023-02-11T23:40:01.139Z,48.79
2023-02-11T23:42:28.797Z,48.97
2023-02-11T23:44:55.404Z,48.84
2023-02-11T23:47:22.018Z,48.91
2023-02-11T23:49:48.602Z,48.47
2023-02-11T23:52:15.301Z,47.94
2023-02-11T23:54:43.402Z,47.89
2023-02-11T23:57:10.148Z,48.20
2023-02-11T23:59:36.886Z,48.18
